Time;durP1;ratioP1;P1;durP2;ratioP2;P2;SDS_P1;SDS_P2;PMS_P1;PMS_P2;Temp;Humidity;BMP_temperature;BMP_pressure;BME280_temperature;BME280_humidity;BME280_pressure;Samples;Min_cycle;Max_cycle;Signal;HPM_P1;HPM_P2
2023/01/23 00:01:18;;;;;;;4.50;2.67;;;20.00;35.90;;;;;;5058808;28;20417;-68
2023/01/23 00:03:46;;;;;;;4.82;3.33;;;20.00;35.90;;;;;;5058725;28;20516;-68
2023/01/23 00:06:15;;;;;;;4.22;2.97;;;19.90;35.80;;;;;;5057690;28;20054;-68
2023/01/23 00:08:44;;;;;;;3.90;3.10;;;20.00;35.90;;;;;;5058289;28;20040;-68
2023/01/23 00:11:15;;;;;;;5.10;3.28;;;19.90;35.80;;;;;;5041179;28;20075;-63
2023/01/23 00:13:42;;;;;;;4.05;3.25;;;20.00;35.90;;;;;;5056934;28;20101;-68
2023/01/23 00:16:13;;;;;;;5.22;3.05;;;19.90;35.90;;;;;;5057973;28;20171;-69
2023/01/23 00:18:40;;;;;;;3.88;2.75;;;19.90;35.90;;;;;;5057086;28;20103;-68
2023/01/23 00:21:10;;;;;;;5.88;3.78;;;20.00;35.90;;;;;;5057697;28;20076;-68
2023/01/23 00:23:40;;;;;;;4.43;3.25;;;20.00;35.90;;;;;;5058754;28;20078;-68
2023/01/23 00:26:12;;;;;;;3.80;2.88;;;20.00;35.90;;;;;;5057891;28;20460;-68
2023/01/23 00:28:39;;;;;;;3.90;2.90;;;20.00;35.90;;;;;;5058175;28;20136;-68
2023/01/23 00:31:10;;;;;;;3.97;2.85;;;20.00;35.90;;;;;;5058237;28;20049;-68
2023/01/23 00:33:42;;;;;;;3.33;2.80;;;20.00;35.90;;;;;;5058027;28;20136;-68
2023/01/23 00:36:11;;;;;;;5.07;3.45;;;20.00;35.90;;;;;;5058488;28;20056;-68
2023/01/23 00:38:38;;;;;;;3.67;3.05;;;20.00;35.90;;;;;;5057928;28;20048;-67
2023/01/23 00:41:05;;;;;;;5.43;3.05;;;20.00;35.90;;;;;;5058085;28;20523;-68
2023/01/23 00:43:33;;;;;;;3.25;2.63;;;20.00;35.90;;;;;;5058308;28;20045;-68
2023/01/23 00:46:00;;;;;;;4.40;2.83;;;20.00;35.90;;;;;;5058075;28;20477;-68
2023/01/23 00:48:27;;;;;;;4.05;3.10;;;20.00;35.90;;;;;;5057808;28;20114;-68
2023/01/23 00:50:54;;;;;;;5.20;3.47;;;20.00;35.90;;;;;;5057219;28;20107;-69
2023/01/23 00:53:22;;;;;;;3.13;2.78;;;20.00;35.90;;;;;;5058164;28;20436;-68
2023/01/23 00:55:49;;;;;;;3.42;2.42;;;20.00;35.90;;;;;;5057780;28;20045;-68
2023/01/23 00:58:17;;;;;;;4.85;2.83;;;19.90;35.90;;;;;;5058230;28;20136;-68
2023/01/23 01:00:44;;;;;;;2.92;2.55;;;19.90;35.90;;;;;;5058088;28;20455;-68
2023/01/23 01:03:12;;;;;;;3.08;2.65;;;19.90;35.90;;;;;;5057682;28;20131;-68
2023/01/23 01:05:39;;;;;;;3.63;3.20;;;19.90;35.90;;;;;;5057312;28;20455;-68
2023/01/23 01:08:06;;;;;;;2.80;2.55;;;19.90;35.90;;;;;;5058087;28;20049;-68
2023/01/23 01:10:33;;;;;;;3.10;2.80;;;19.90;36.00;;;;;;5057650;28;20077;-68
2023/01/23 01:13:02;;;;;;;3.55;2.63;;;19.90;35.90;;;;;;5057183;28;20044;-68
2023/01/23 01:15:29;;;;;;;4.05;3.17;;;19.90;36.50;;;;;;5056407;28;20048;-68
2023/01/23 01:17:58;;;;;;;3.00;2.42;;;19.90;35.90;;;;;;5057497;28;20145;-68
2023/01/23 01:20:26;;;;;;;4.03;3.08;;;20.00;36.00;;;;;;5057603;28;20072;-69
2023/01/23 01:22:55;;;;;;;3.42;2.80;;;19.90;35.90;;;;;;5056626;28;20132;-68
2023/01/23 01:25:22;;;;;;;4.28;3.10;;;19.90;35.90;;;;;;5057589;28;20136;-68
2023/01/23 01:27:49;;;;;;;4.63;3.08;;;19.90;35.90;;;;;;5057212;28;20480;-68
2023/01/23 01:30:17;;;;;;;3.80;2.95;;;19.90;35.90;;;;;;5056161;28;20111;-68
2023/01/23 01:32:45;;;;;;;4.63;3.00;;;19.90;35.90;;;;;;5056998;28;20481;-68
2023/01/23 01:35:12;;;;;;;3.35;2.90;;;20.00;36.00;;;;;;5057178;28;20137;-68
2023/01/23 01:37:40;;;;;;;3.47;2.92;;;19.90;36.00;;;;;;5057253;28;20048;-68
2023/01/23 01:40:16;;;;;;;3.22;2.53;;;19.90;36.00;;;;;;5056946;28;20092;-68
2023/01/23 01:42:48;;;;;;;4.03;2.90;;;19.90;36.00;;;;;;5055433;28;20501;-68
2023/01/23 01:45:55;;;;;;;4.35;3.10;;;19.90;36.00;;;;;;5057390;28;20045;-64
2023/01/23 01:48:27;;;;;;;4.55;2.95;;;20.00;36.00;;;;;;5057397;28;20092;-68
2023/01/23 01:50:55;;;;;;;3.83;2.90;;;20.00;36.00;;;;;;5056235;28;20132;-68
2023/01/23 01:53:25;;;;;;;2.70;2.50;;;19.90;36.00;;;;;;5057096;28;20546;-68
2023/01/23 01:55:53;;;;;;;4.65;3.10;;;19.90;36.00;;;;;;5056905;28;20474;-68
2023/01/23 01:58:21;;;;;;;2.80;2.50;;;19.90;36.00;;;;;;5055910;28;20136;-68
2023/01/23 02:00:48;;;;;;;3.60;2.70;;;19.90;36.00;;;;;;5056052;28;20091;-64
2023/01/23 02:03:18;;;;;;;3.22;2.80;;;19.90;36.00;;;;;;5056698;28;20089;-66
2023/01/23 02:05:48;;;;;;;3.88;2.90;;;19.90;36.00;;;;;;5057097;28;20076;-68
2023/01/23 02:08:38;;;;;;;3.60;2.65;;;19.90;36.00;;;;;;5056843;28;20406;-68
2023/01/23 02:11:06;;;;;;;3.30;2.95;;;19.90;36.00;;;;;;5056802;28;20087;-69
2023/01/23 02:13:35;;;;;;;3.45;2.60;;;19.90;36.00;;;;;;5056676;28;20109;-68
2023/01/23 02:16:07;;;;;;;2.92;2.63;;;19.90;36.00;;;;;;5055374;28;20048;-68
2023/01/23 02:18:38;;;;;;;3.15;2.63;;;19.90;36.00;;;;;;5056837;28;20045;-68
2023/01/23 02:21:07;;;;;;;3.20;2.72;;;19.90;36.00;;;;;;5056762;28;20120;-68
2023/01/23 02:24:02;;;;;;;2.83;2.42;;;19.90;36.00;;;;;;5055567;28;20048;-68
2023/01/23 02:26:39;;;;;;;3.03;2.40;;;19.90;36.00;;;;;;5056392;28;20154;-68
2023/01/23 02:29:06;;;;;;;3.60;2.75;;;19.90;36.10;;;;;;5056106;28;20049;-64
2023/01/23 02:31:34;;;;;;;2.88;2.53;;;19.90;36.00;;;;;;5056192;28;20079;-68
2023/01/23 02:34:01;;;;;;;3.10;2.80;;;19.90;36.10;;;;;;5056788;28;20045;-67
2023/01/23 02:36:32;;;;;;;2.63;2.40;;;19.90;36.10;;;;;;5055482;28;20128;-68
2023/01/23 02:39:08;;;;;;;2.67;2.45;;;19.90;36.10;;;;;;5054946;28;20139;-68
2023/01/23 02:41:38;;;;;;;3.35;2.78;;;19.90;36.10;;;;;;5054875;28;20103;-68
2023/01/23 02:44:26;;;;;;;;;;;19.90;36.10;;;;;;5056450;28;20049;-68
2023/01/23 02:46:55;;;;;;;3.20;2.38;;;20.00;36.10;;;;;;5055972;28;19921;-68
2023/01/23 02:49:23;;;;;;;3.00;2.33;;;19.90;36.00;;;;;;5056017;28;20132;-68
2023/01/23 02:51:52;;;;;;;4.38;2.92;;;19.90;36.00;;;;;;5055914;28;20093;-68
2023/01/23 02:54:20;;;;;;;2.70;2.50;;;19.90;36.00;;;;;;5056437;28;20076;-68
2023/01/23 02:56:47;;;;;;;2.97;2.40;;;19.90;36.10;;;;;;5055851;28;20485;-68
2023/01/23 03:02:03;;;;;;;2.40;2.15;;;19.90;36.00;;;;;;5055777;28;20045;-68
2023/01/23 03:04:30;;;;;;;3.30;2.60;;;19.90;36.00;;;;;;5055847;28;20485;-68
2023/01/23 03:06:58;;;;;;;3.40;2.92;;;19.90;36.00;;;;;;5055999;28;20045;-68
2023/01/23 03:09:25;;;;;;;2.80;2.33;;;20.00;36.10;;;;;;5054348;28;20053;-68
2023/01/23 03:11:52;;;;;;;3.13;2.70;;;20.00;36.10;;;;;;5055875;28;20052;-69
2023/01/23 03:14:22;;;;;;;3.15;2.83;;;19.90;36.00;;;;;;5035828;28;20144;-68
2023/01/23 03:16:52;;;;;;;2.58;2.38;;;20.00;36.10;;;;;;5047806;28;20132;-68
2023/01/23 03:19:22;;;;;;;3.53;2.70;;;19.90;36.10;;;;;;5055649;28;20073;-68
2023/01/23 03:21:50;;;;;;;2.80;2.53;;;19.90;36.10;;;;;;5055815;28;20128;-68
2023/01/23 03:24:19;;;;;;;2.17;2.03;;;19.90;36.10;;;;;;5055192;28;20120;-68
2023/01/23 03:26:47;;;;;;;2.55;2.28;;;19.90;36.10;;;;;;5055542;28;20132;-68
2023/01/23 03:32:09;;;;;;;3.03;2.13;;;19.90;36.10;;;;;;5054714;28;20551;-68
2023/01/23 03:34:37;;;;;;;2.83;2.50;;;19.90;36.10;;;;;;5054815;28;20080;-68
2023/01/23 03:37:06;;;;;;;3.20;2.67;;;19.90;36.10;;;;;;5054776;28;20064;-67
2023/01/23 03:42:21;;;;;;;2.90;2.60;;;19.90;36.10;;;;;;5053916;28;20084;-68
2023/01/23 03:44:51;;;;;;;2.83;2.50;;;19.90;36.10;;;;;;5055410;28;20075;-69
2023/01/23 03:47:19;;;;;;;4.07;2.80;;;19.90;36.10;;;;;;5055488;28;20085;-68
2023/01/23 03:49:46;;;;;;;3.85;2.63;;;19.90;36.10;;;;;;5057038;28;20088;-68
2023/01/23 03:52:13;;;;;;;3.05;2.75;;;19.90;36.10;;;;;;5058979;28;20045;-68
2023/01/23 03:54:41;;;;;;;2.80;2.28;;;19.90;36.10;;;;;;5058873;28;20048;-68
2023/01/23 03:57:09;;;;;;;2.55;2.22;;;19.90;36.10;;;;;;5059222;28;20409;-68
2023/01/23 03:59:36;;;;;;;4.32;2.90;;;19.90;36.10;;;;;;5059393;28;20472;-68
2023/01/23 04:02:06;;;;;;;2.40;2.00;;;19.90;36.10;;;;;;5059125;28;20083;-68
2023/01/23 04:04:34;;;;;;;2.72;2.20;;;19.90;36.10;;;;;;5058633;28;20049;-68
2023/01/23 04:07:02;;;;;;;2.53;2.33;;;19.90;36.10;;;;;;5058792;28;20075;-68
2023/01/23 04:09:29;;;;;;;2.47;2.28;;;19.90;36.10;;;;;;5058373;28;20053;-68
2023/01/23 04:11:58;;;;;;;3.70;2.20;;;19.90;36.20;;;;;;5058447;28;20087;-69
2023/01/23 04:14:29;;;;;;;3.90;2.60;;;19.90;36.20;;;;;;5059028;28;20049;-68
2023/01/23 04:16:58;;;;;;;2.85;2.53;;;19.90;36.20;;;;;;5058770;28;20081;-68
2023/01/23 04:19:25;;;;;;;2.53;2.33;;;19.90;36.20;;;;;;5058633;28;20087;-68
2023/01/23 04:21:52;;;;;;;2.88;2.35;;;19.90;36.20;;;;;;5058678;28;20049;-68
2023/01/23 04:24:19;;;;;;;2.60;2.28;;;19.90;36.20;;;;;;5058428;28;20051;-68
2023/01/23 04:26:46;;;;;;;3.20;2.20;;;19.90;36.20;;;;;;5058688;28;20083;-68
2023/01/23 04:29:13;;;;;;;2.67;2.10;;;19.90;36.20;;;;;;5058485;28;20243;-68
2023/01/23 04:31:41;;;;;;;2.35;2.15;;;19.80;36.10;;;;;;5056432;28;20041;-68
2023/01/23 04:34:09;;;;;;;3.13;2.75;;;19.90;36.20;;;;;;5058520;28;20409;-68
2023/01/23 04:36:36;;;;;;;2.65;2.30;;;19.80;36.10;;;;;;5057899;28;20047;-68
2023/01/23 04:39:03;;;;;;;2.08;1.77;;;19.90;36.20;;;;;;5056382;28;20131;-68
2023/01/23 04:41:32;;;;;;;2.65;2.45;;;19.80;36.20;;;;;;5053766;28;20128;-69
2023/01/23 04:44:18;;;;;;;3.72;2.50;;;19.90;36.20;;;;;;5048063;28;20295;-69
2023/01/23 04:46:48;;;;;;;3.03;2.17;;;19.90;36.30;;;;;;5053501;28;20049;-68
2023/01/23 04:49:17;;;;;;;2.63;2.15;;;19.80;36.20;;;;;;5047731;28;20493;-68
2023/01/23 04:51:47;;;;;;;2.38;2.10;;;19.90;36.30;;;;;;5053114;28;20064;-68
2023/01/23 04:54:15;;;;;;;2.80;2.30;;;19.90;36.30;;;;;;5049363;28;20111;-68
2023/01/23 04:56:43;;;;;;;2.05;1.90;;;19.90;36.30;;;;;;5043016;28;20136;-68
2023/01/23 04:59:11;;;;;;;2.97;2.28;;;19.90;36.30;;;;;;5048469;28;20052;-68
2023/01/23 05:01:38;;;;;;;2.55;2.35;;;19.90;36.30;;;;;;5046392;28;20045;-68
2023/01/23 05:04:05;;;;;;;2.75;2.35;;;19.90;36.30;;;;;;5045793;28;20403;-68
2023/01/23 05:06:32;;;;;;;2.20;2.00;;;19.90;36.30;;;;;;5042286;28;20053;-68
2023/01/23 05:08:59;;;;;;;2.55;2.35;;;19.90;36.20;;;;;;5037754;28;20132;-68
2023/01/23 05:11:27;;;;;;;2.30;2.13;;;19.90;36.30;;;;;;5023267;28;20049;-68
2023/01/23 05:13:54;;;;;;;3.05;2.42;;;19.90;36.20;;;;;;5057313;28;20049;-68
2023/01/23 05:16:21;;;;;;;2.10;1.90;;;19.90;36.30;;;;;;5056708;28;20056;-68
2023/01/23 05:18:48;;;;;;;2.60;2.22;;;19.90;36.20;;;;;;5056740;28;20473;-68
2023/01/23 05:21:16;;;;;;;3.50;2.20;;;19.80;36.20;;;;;;5052571;28;20469;-68
2023/01/23 05:23:43;;;;;;;2.95;1.90;;;19.90;36.30;;;;;;5051194;28;20098;-69
2023/01/23 05:26:10;;;;;;;2.25;2.05;;;19.90;36.30;;;;;;5050211;28;20491;-68
2023/01/23 05:28:37;;;;;;;3.33;2.42;;;19.80;36.20;;;;;;5047625;28;20068;-68
2023/01/23 05:31:04;;;;;;;2.10;1.80;;;19.80;36.20;;;;;;5049461;28;20470;-68
2023/01/23 05:33:31;;;;;;;1.85;1.75;;;19.80;36.20;;;;;;5049688;28;20048;-68
2023/01/23 05:36:00;;;;;;;2.78;2.28;;;19.80;36.20;;;;;;5045499;28;20068;-68
2023/01/23 05:38:27;;;;;;;3.65;3.35;;;19.80;36.10;;;;;;5056692;28;20098;-68
2023/01/23 05:40:54;;;;;;;4.25;3.30;;;19.80;36.00;;;;;;5056298;28;20468;-68
2023/01/23 05:43:21;;;;;;;3.90;3.13;;;19.80;35.90;;;;;;5054499;28;20048;-68
2023/01/23 05:45:48;;;;;;;5.55;3.70;;;19.80;36.00;;;;;;5047998;28;20551;-68
2023/01/23 05:48:16;;;;;;;4.18;3.00;;;19.80;36.00;;;;;;5048581;28;20046;-68
2023/01/23 05:50:43;;;;;;;3.45;3.15;;;19.80;36.10;;;;;;5047193;28;20064;-68
2023/01/23 05:53:10;;;;;;;3.85;2.70;;;19.80;36.10;;;;;;5045846;28;20138;-68
2023/01/23 05:55:38;;;;;;;4.10;3.08;;;19.80;36.10;;;;;;5046220;28;20069;-68
2023/01/23 05:58:05;;;;;;;4.65;3.20;;;19.80;36.10;;;;;;5045166;28;20094;-68
2023/01/23 06:00:32;;;;;;;3.40;3.03;;;19.80;36.10;;;;;;5045535;28;20124;-67
2023/01/23 06:02:59;;;;;;;3.75;3.35;;;19.80;36.10;;;;;;5042642;28;20059;-68
2023/01/23 06:05:27;;;;;;;4.05;3.42;;;19.80;36.10;;;;;;5039645;28;20045;-68
2023/01/23 06:07:54;;;;;;;3.67;3.33;;;19.80;36.00;;;;;;5043229;28;20128;-69
2023/01/23 06:10:21;;;;;;;4.32;3.30;;;19.90;36.10;;;;;;5039434;28;20140;-68
2023/01/23 06:12:48;;;;;;;4.53;3.28;;;19.90;36.00;;;;;;5041341;28;20045;-68
2023/01/23 06:15:18;;;;;;;4.20;3.47;;;19.90;36.00;;;;;;5040982;28;20140;-64
2023/01/23 06:17:45;;;;;;;3.13;2.70;;;19.90;35.90;;;;;;5042503;28;20344;-68
2023/01/23 06:20:13;;;;;;;5.22;3.72;;;19.90;35.90;;;;;;5046836;28;20054;-62
2023/01/23 06:22:40;;;;;;;3.83;3.10;;;19.90;35.90;;;;;;5043241;28;20045;-64
2023/01/23 06:25:08;;;;;;;5.45;3.88;;;19.90;35.80;;;;;;5036804;28;20136;-69
2023/01/23 06:27:57;;;;;;;4.75;3.78;;;19.90;35.90;;;;;;5035438;28;20383;-66
2023/01/23 06:30:24;;;;;;;4.82;4.10;;;20.00;35.90;;;;;;5061162;28;20041;-69
2023/01/23 06:32:51;;;;;;;4.97;3.38;;;20.00;35.90;;;;;;5075399;28;20140;-67
2023/01/23 06:35:19;;;;;;;5.38;4.05;;;20.00;35.90;;;;;;5074797;28;20044;-68
2023/01/23 06:37:46;;;;;;;5.50;3.90;;;20.00;35.80;;;;;;5048439;28;20045;-65
2023/01/23 06:40:14;;;;;;;5.18;4.10;;;20.10;35.90;;;;;;5043826;28;20132;-66
2023/01/23 06:42:42;;;;;;;7.05;4.30;;;20.10;36.10;;;;;;5036193;28;20037;-65
2023/01/23 06:45:10;;;;;;;6.53;4.70;;;20.10;36.00;;;;;;5043481;28;20064;-65
2023/01/23 06:51:19;;;;;;;7.00;4.95;;;20.20;36.20;;;;;;5038506;28;20140;-65
2023/01/23 06:53:46;;;;;;;5.82;4.40;;;20.30;36.50;;;;;;5056780;28;20045;-66
2023/01/23 06:56:13;;;;;;;6.28;4.10;;;20.30;36.80;;;;;;5042279;28;20053;-67
2023/01/23 06:58:44;;;;;;;6.15;3.92;;;20.30;37.00;;;;;;5042474;28;20053;-69
2023/01/23 07:04:32;;;;;;;6.43;4.70;;;20.40;37.00;;;;;;5039477;28;20128;-68
2023/01/23 07:06:59;;;;;;;7.05;4.70;;;20.50;37.10;;;;;;5052448;28;20045;-73
2023/01/23 07:09:26;;;;;;;6.72;4.47;;;20.50;37.20;;;;;;5047680;28;20049;-66
2023/01/23 07:11:53;;;;;;;5.43;4.57;;;20.60;37.20;;;;;;5043731;28;20049;-72
2023/01/23 07:25:43;;;;;;;8.25;5.25;;;20.70;36.70;;;;;;5051768;28;20106;-65
2023/01/23 07:28:11;;;;;;;7.78;4.43;;;20.80;36.60;;;;;;5044048;28;20057;-67
2023/01/23 07:30:38;;;;;;;7.78;4.68;;;20.80;36.40;;;;;;5047549;28;20171;-68
2023/01/23 07:33:06;;;;;;;9.98;4.70;;;20.90;36.40;;;;;;5044091;28;20140;-68
2023/01/23 07:35:33;;;;;;;5.78;4.60;;;20.90;36.40;;;;;;5047362;28;20049;-70
2023/01/23 07:38:00;;;;;;;6.15;5.07;;;20.90;36.40;;;;;;5042473;28;20067;-70
2023/01/23 07:40:28;;;;;;;9.02;4.68;;;21.00;36.60;;;;;;5041219;28;20045;-68
2023/01/23 07:42:56;;;;;;;6.72;4.65;;;21.00;36.60;;;;;;5043124;28;20127;-69
2023/01/23 07:45:23;;;;;;;6.25;4.72;;;21.00;36.60;;;;;;5044960;28;20084;-69
2023/01/23 07:47:50;;;;;;;6.32;4.78;;;21.10;36.70;;;;;;5043962;28;20415;-68
2023/01/23 07:50:18;;;;;;;9.63;5.07;;;21.10;36.80;;;;;;5046803;28;20053;-66
2023/01/23 07:52:45;;;;;;;7.40;4.85;;;21.10;36.80;;;;;;5037062;28;20049;-65
2023/01/23 07:55:12;;;;;;;7.47;4.28;;;21.20;36.70;;;;;;5041128;28;20057;-68
2023/01/23 07:57:40;;;;;;;9.40;4.32;;;21.20;36.50;;;;;;5041402;28;20102;-62
2023/01/23 08:00:09;;;;;;;7.18;4.75;;;21.20;36.50;;;;;;5040328;28;20397;-61
2023/01/23 08:02:37;;;;;;;6.22;4.50;;;21.30;36.50;;;;;;5044165;28;20069;-60
2023/01/23 08:05:05;;;;;;;6.75;4.55;;;21.30;36.30;;;;;;5041025;28;20064;-61
2023/01/23 08:07:32;;;;;;;6.70;4.63;;;21.30;36.20;;;;;;5040525;28;20132;-65
2023/01/23 08:09:59;;;;;;;6.63;4.70;;;21.30;36.20;;;;;;5039239;28;20514;-64
2023/01/23 08:12:27;;;;;;;5.95;4.63;;;21.30;36.10;;;;;;5043541;28;20111;-63
2023/01/23 08:14:54;;;;;;;10.05;4.68;;;21.40;36.30;;;;;;5046912;28;21112;-63
2023/01/23 08:17:21;;;;;;;5.53;4.00;;;21.40;36.40;;;;;;5044081;28;20069;-63
2023/01/23 08:19:48;;;;;;;6.30;5.07;;;21.40;36.40;;;;;;5042729;28;20057;-61
2023/01/23 08:22:16;;;;;;;9.90;4.90;;;21.40;36.40;;;;;;5044593;28;20049;-62
2023/01/23 08:24:43;;;;;;;6.50;4.38;;;21.40;36.40;;;;;;5046390;28;20084;-61
2023/01/23 08:27:11;;;;;;;7.95;4.82;;;21.50;36.30;;;;;;5045888;28;20136;-62
2023/01/23 08:29:41;;;;;;;6.47;4.75;;;21.50;36.20;;;;;;5046927;28;20065;-60
2023/01/23 08:32:08;;;;;;;7.57;4.47;;;21.50;36.20;;;;;;5050076;28;20077;-62
2023/01/23 08:34:35;;;;;;;5.45;4.60;;;21.50;37.00;;;;;;5044511;28;20400;-62
2023/01/23 08:37:03;;;;;;;6.60;4.22;;;21.60;36.50;;;;;;5045661;28;20053;-62
2023/01/23 08:39:31;;;;;;;8.20;4.63;;;21.60;36.50;;;;;;5041537;28;20049;-60
2023/01/23 08:41:58;;;;;;;8.00;4.90;;;21.60;36.40;;;;;;5041560;28;20538;-64
2023/01/23 08:44:25;;;;;;;8.10;5.00;;;21.70;36.40;;;;;;5046510;28;20068;-64
2023/01/23 08:46:52;;;;;;;10.32;4.53;;;21.70;36.30;;;;;;5048736;28;20041;-64
2023/01/23 08:49:20;;;;;;;5.80;4.13;;;21.70;36.20;;;;;;5045362;28;20122;-63
2023/01/23 08:51:47;;;;;;;13.10;4.97;;;21.70;36.10;;;;;;5042840;28;20087;-63
2023/01/23 08:54:14;;;;;;;6.40;4.00;;;21.70;36.20;;;;;;5042361;28;20140;-63
2023/01/23 08:56:41;;;;;;;7.43;4.55;;;21.70;36.20;;;;;;5046553;28;20120;-62
2023/01/23 08:59:09;;;;;;;5.63;4.07;;;21.80;36.20;;;;;;5043799;28;20488;-60
2023/01/23 09:01:36;;;;;;;7.78;5.00;;;21.80;36.20;;;;;;5045301;28;20125;-58
2023/01/23 09:04:04;;;;;;;7.30;4.88;;;21.80;36.40;;;;;;5046711;28;20128;-59
2023/01/23 09:06:31;;;;;;;7.35;5.07;;;21.80;36.30;;;;;;5042573;28;20054;-61
2023/01/23 09:08:58;;;;;;;9.05;4.15;;;21.80;36.20;;;;;;5042920;28;21989;-61
2023/01/23 09:11:25;;;;;;;11.60;4.63;;;21.90;36.20;;;;;;5039324;28;20053;-63
2023/01/23 09:13:52;;;;;;;8.90;4.65;;;21.90;36.20;;;;;;5045759;28;20103;-59
2023/01/23 09:16:20;;;;;;;9.20;4.68;;;21.90;36.40;;;;;;5041826;28;20052;-63
2023/01/23 09:18:48;;;;;;;9.93;4.90;;;21.90;36.50;;;;;;5044194;28;20043;-74
2023/01/23 09:21:16;;;;;;;7.68;4.70;;;22.00;36.60;;;;;;5041454;28;20135;-69
2023/01/23 09:23:44;;;;;;;8.65;4.72;;;22.00;36.40;;;;;;5045217;28;20546;-66
2023/01/23 09:26:13;;;;;;;5.65;4.03;;;22.00;36.40;;;;;;5043282;28;20041;-67
2023/01/23 09:28:41;;;;;;;7.43;4.60;;;22.00;36.30;;;;;;5043731;28;20056;-71
2023/01/23 09:31:11;;;;;;;6.65;4.82;;;22.10;36.30;;;;;;5044789;28;20059;-70
2023/01/23 09:33:39;;;;;;;6.90;4.15;;;22.10;36.10;;;;;;5042015;28;20107;-67
2023/01/23 09:36:08;;;;;;;7.88;4.50;;;22.10;36.00;;;;;;5046423;28;20044;-62
2023/01/23 09:38:36;;;;;;;6.05;4.35;;;22.10;36.00;;;;;;5041861;28;20123;-66
2023/01/23 09:41:09;;;;;;;7.40;4.68;;;22.20;36.10;;;;;;5041131;28;20055;-67
2023/01/23 09:43:48;;;;;;;8.73;4.45;;;22.20;36.10;;;;;;5040658;28;20049;-68
2023/01/23 09:46:31;;;;;;;5.80;4.63;;;22.30;36.00;;;;;;5042819;28;20136;-69
2023/01/23 09:49:08;;;;;;;6.65;3.83;;;22.40;36.00;;;;;;5024847;28;20053;-66
2023/01/23 09:52:10;;;;;;;6.93;4.57;;;22.40;36.00;;;;;;5041327;28;20049;-68
2023/01/23 09:54:43;;;;;;;6.45;4.18;;;22.40;36.00;;;;;;5044593;28;20157;-69
2023/01/23 09:57:29;;;;;;;5.32;4.13;;;22.50;36.10;;;;;;5043258;28;20049;-68
2023/01/23 10:00:09;;;;;;;5.10;4.32;;;22.50;36.00;;;;;;5043892;28;20111;-67
2023/01/23 10:02:37;;;;;;;5.45;3.85;;;22.50;36.00;;;;;;5042605;28;20241;-66
2023/01/23 10:05:11;;;;;;;4.82;4.20;;;22.50;35.80;;;;;;5039722;28;20056;-65
2023/01/23 10:08:18;;;;;;;5.10;4.10;;;22.60;35.80;;;;;;5033098;28;20159;-67
2023/01/23 10:10:59;;;;;;;5.25;4.10;;;22.60;35.70;;;;;;5042857;28;20067;-65
2023/01/23 10:14:01;;;;;;;7.70;4.00;;;22.60;35.60;;;;;;5040632;28;21619;-68
2023/01/23 10:16:59;;;;;;;5.68;4.25;;;22.60;35.50;;;;;;5040525;28;20048;-68
2023/01/23 10:20:01;;;;;;;3.63;3.33;;;22.70;35.60;;;;;;5043331;28;20049;-68
2023/01/23 10:22:36;;;;;;;6.55;4.75;;;22.70;35.50;;;;;;5041310;28;20053;-67
2023/01/23 10:25:18;;;;;;;6.18;4.05;;;22.70;35.50;;;;;;5046094;28;20076;-65
2023/01/23 10:27:48;;;;;;;6.32;4.63;;;22.70;35.40;;;;;;5042070;28;20455;-69
2023/01/23 10:30:37;;;;;;;9.93;4.60;;;22.80;35.50;;;;;;5043687;28;20103;-72
2023/01/23 10:33:17;;;;;;;5.63;4.45;;;22.70;35.50;;;;;;5039558;28;20297;-69
2023/01/23 10:36:01;;;;;;;7.32;4.22;;;22.80;35.60;;;;;;5045580;28;20132;-63
2023/01/23 10:38:49;;;;;;;4.63;3.80;;;22.80;35.70;;;;;;5038523;28;20072;-71
2023/01/23 10:41:18;;;;;;;4.85;3.90;;;22.80;35.70;;;;;;5039111;28;20973;-68
2023/01/23 10:43:51;;;;;;;7.97;4.50;;;22.80;35.60;;;;;;5043521;28;20507;-69
2023/01/23 10:46:32;;;;;;;5.88;4.18;;;22.80;35.50;;;;;;5043312;28;20469;-72
2023/01/23 10:49:00;;;;;;;6.97;4.47;;;22.80;35.50;;;;;;5037736;28;20044;-64
2023/01/23 10:51:31;;;;;;;6.22;4.30;;;22.80;35.50;;;;;;5041595;28;20092;-66
2023/01/23 10:54:21;;;;;;;6.80;4.20;;;22.90;36.10;;;;;;5037693;28;20053;-68
2023/01/23 10:57:21;;;;;;;8.50;3.60;;;22.90;35.40;;;;;;5040943;28;20092;-64
2023/01/23 11:00:16;;;;;;;11.35;4.43;;;22.90;35.50;;;;;;5038837;28;20415;-66
2023/01/23 11:02:44;;;;;;;10.60;4.47;;;22.90;35.40;;;;;;5037394;28;20497;-66
2023/01/23 11:05:38;;;;;;;7.50;4.60;;;23.00;35.40;;;;;;5045020;28;20106;-70
2023/01/23 11:08:28;;;;;;;5.78;4.53;;;23.00;35.30;;;;;;5048013;28;20443;-70
2023/01/23 11:11:18;;;;;;;6.85;3.83;;;23.00;35.20;;;;;;5049670;28;20045;-70
2023/01/23 11:13:46;;;;;;;5.40;4.13;;;23.00;35.20;;;;;;5047203;28;20065;-68
2023/01/23 11:16:17;;;;;;;4.25;3.83;;;23.00;35.00;;;;;;5045046;28;20072;-69
2023/01/23 11:18:54;;;;;;;4.40;3.65;;;23.00;35.00;;;;;;5045741;28;20053;-67
2023/01/23 11:21:37;;;;;;;4.38;3.83;;;23.00;35.00;;;;;;5044890;28;20455;-67
2023/01/23 11:24:26;;;;;;;5.70;4.07;;;23.00;35.00;;;;;;5043260;28;20096;-66
2023/01/23 11:27:26;;;;;;;6.55;4.63;;;23.00;35.10;;;;;;5044853;28;20060;-67
2023/01/23 11:30:23;;;;;;;5.97;4.07;;;23.00;35.10;;;;;;5047683;28;20049;-69
2023/01/23 11:33:21;;;;;;;5.75;4.20;;;23.00;35.20;;;;;;5043544;28;20091;-72
2023/01/23 11:36:06;;;;;;;5.15;3.78;;;23.00;35.20;;;;;;5044473;28;20048;-69
2023/01/23 11:38:45;;;;;;;5.28;3.83;;;22.90;35.20;;;;;;5048960;28;20130;-70
2023/01/23 11:41:21;;;;;;;5.57;4.00;;;22.90;35.30;;;;;;5047981;28;20053;-71
2023/01/23 11:43:48;;;;;;;5.25;4.10;;;22.90;35.30;;;;;;5046486;28;20077;-69
2023/01/23 11:46:41;;;;;;;4.93;3.83;;;22.90;35.30;;;;;;5044258;28;20080;-68
2023/01/23 11:49:42;;;;;;;5.13;4.18;;;22.90;35.30;;;;;;5049544;28;20049;-68
2023/01/23 11:52:41;;;;;;;4.13;3.55;;;22.90;35.30;;;;;;5049031;28;20080;-68
2023/01/23 11:55:38;;;;;;;5.22;4.22;;;22.90;35.40;;;;;;5039168;28;20190;-68
2023/01/23 11:58:33;;;;;;;5.38;3.80;;;22.90;35.40;;;;;;5037860;28;20059;-68
2023/01/23 12:01:18;;;;;;;4.70;3.78;;;22.80;35.80;;;;;;5043740;28;20056;-69
2023/01/23 12:04:25;;;;;;;4.30;3.65;;;22.80;35.90;;;;;;5047465;28;20045;-65
2023/01/23 12:07:19;;;;;;;4.20;3.45;;;22.90;36.00;;;;;;5030767;28;20049;-66
2023/01/23 12:10:11;;;;;;;5.85;4.18;;;22.80;36.10;;;;;;5048010;28;20132;-67
2023/01/23 12:13:06;;;;;;;3.92;3.53;;;22.80;36.10;;;;;;5044968;28;20428;-66
2023/01/23 12:15:53;;;;;;;3.70;3.40;;;22.80;36.10;;;;;;5045216;28;20128;-65
2023/01/23 12:19:00;;;;;;;8.38;4.50;;;22.80;36.20;;;;;;5046054;28;20110;-62
2023/01/23 12:22:01;;;;;;;4.68;3.53;;;22.80;36.20;;;;;;5044273;28;20487;-60
2023/01/23 12:24:57;;;;;;;4.78;3.58;;;22.80;36.20;;;;;;5045849;28;20041;-61
2023/01/23 12:27:47;;;;;;;9.15;3.45;;;22.80;36.30;;;;;;5042073;28;20052;-61
2023/01/23 12:30:42;;;;;;;5.00;4.50;;;22.80;36.50;;;;;;5043326;28;20045;-59
2023/01/23 12:33:40;;;;;;;5.82;4.18;;;22.80;36.50;;;;;;5043583;28;20065;-61
2023/01/23 12:36:49;;;;;;;5.28;4.30;;;22.80;36.50;;;;;;5037272;28;20053;-63
2023/01/23 12:40:00;;;;;;;7.50;4.40;;;22.80;36.50;;;;;;5043126;28;20045;-63
2023/01/23 12:42:46;;;;;;;6.70;4.13;;;22.80;36.50;;;;;;5046716;28;20044;-61
2023/01/23 12:45:21;;;;;;;5.78;3.58;;;22.80;36.50;;;;;;5046187;28;20041;-59
2023/01/23 12:48:05;;;;;;;6.43;4.43;;;22.80;36.40;;;;;;5040117;28;20136;-63
2023/01/23 12:50:56;;;;;;;4.70;3.80;;;22.80;36.50;;;;;;5043629;28;20116;-64
2023/01/23 12:53:23;;;;;;;8.05;3.88;;;22.80;36.50;;;;;;5041248;28;20052;-63
2023/01/23 12:56:15;;;;;;;5.38;4.00;;;22.80;36.50;;;;;;5043410;28;20059;-65
2023/01/23 12:59:19;;;;;;;4.88;4.15;;;22.80;36.50;;;;;;5044023;28;20456;-65
2023/01/23 13:02:16;;;;;;;5.75;3.83;;;22.80;37.00;;;;;;5044758;28;20492;-64
2023/01/23 13:05:14;;;;;;;5.97;4.38;;;22.80;36.40;;;;;;5044586;28;20102;-63
2023/01/23 13:08:11;;;;;;;7.53;4.22;;;22.80;36.40;;;;;;5030166;28;20431;-69
2023/01/23 13:13:58;;;;;;;16.80;4.45;;;22.90;36.50;;;;;;5039456;28;20103;-65
2023/01/23 13:16:31;;;;;;;14.15;5.55;;;22.80;36.50;;;;;;5043911;28;20052;-70
2023/01/23 13:22:24;;;;;;;14.13;4.97;;;22.80;36.80;;;;;;5036564;28;20055;-68
2023/01/23 13:25:17;;;;;;;15.32;4.68;;;22.80;36.60;;;;;;5041546;28;20565;-64
2023/01/23 13:27:56;;;;;;;8.60;3.92;;;22.80;36.60;;;;;;5036154;28;20160;-66
2023/01/23 13:30:37;;;;;;;12.50;4.38;;;22.80;36.60;;;;;;5038884;28;20087;-65
2023/01/23 13:33:45;;;;;;;7.28;3.85;;;22.80;36.70;;;;;;5041937;28;20236;-74
2023/01/23 13:36:23;;;;;;;10.60;4.53;;;22.80;36.70;;;;;;5042212;28;20445;-72
2023/01/23 13:39:19;;;;;;;7.97;4.22;;;22.90;36.80;;;;;;5040189;28;20136;-65
2023/01/23 13:41:50;;;;;;;9.00;4.10;;;22.90;36.80;;;;;;5038906;28;20064;-66
2023/01/23 13:44:25;;;;;;;5.00;4.35;;;22.80;36.80;;;;;;5045051;28;20378;-67
2023/01/23 13:50:34;;;;;;;6.45;4.10;;;22.80;36.80;;;;;;5024105;28;20057;-68
2023/01/23 13:56:38;;;;;;;6.97;4.03;;;22.80;36.80;;;;;;4905831;29;20186;-65
2023/01/23 13:59:37;;;;;;;4.68;3.65;;;22.80;36.90;;;;;;4906757;29;20088;-65